Time;durP1;ratioP1;P1;durP2;ratioP2;P2;SDS_P1;SDS_P2;PMS_P1;PMS_P2;Temp;Humidity;BMP_temperature;BMP_pressure;BME280_temperature;BME280_humidity;BME280_pressure;Samples;Min_cycle;Max_cycle;Signal;HPM_P1;HPM_P2
2022/11/29 00:02:23;;;;;;;177.83;51.97;;;;;;;;;;4979627;28;20185;-80
2022/11/29 00:04:49;;;;;;;236.57;80.97;;;;;;;;;;4980034;28;20182;-80
2022/11/29 00:07:15;;;;;;;228.07;72.03;;;;;;;;;;4998191;28;20189;-79
2022/11/29 00:09:41;;;;;;;252.73;78.00;;;;;;;;;;4983012;28;20212;-79
2022/11/29 00:12:11;;;;;;;245.57;75.27;;;;;;;;;;4979559;28;20190;-79
2022/11/29 00:14:37;;;;;;;170.07;47.73;;;;;;;;;;5008148;28;20197;-82
2022/11/29 00:17:04;;;;;;;188.67;46.80;;;;;;;;;;4992368;28;20190;-82
2022/11/29 00:19:31;;;;;;;175.90;45.37;;;;;;;;;;4996387;28;20170;-82
2022/11/29 00:21:57;;;;;;;161.57;44.57;;;;;;;;;;4979658;28;20205;-82
2022/11/29 00:24:23;;;;;;;176.30;44.30;;;;;;;;;;4991673;28;20197;-87
2022/11/29 00:26:49;;;;;;;185.93;53.30;;;;;;;;;;4980173;28;20269;-86
2022/11/29 00:29:15;;;;;;;180.40;49.23;;;;;;;;;;4979736;28;20178;-88
2022/11/29 00:31:41;;;;;;;189.30;50.40;;;;;;;;;;4996228;28;20193;-82
2022/11/29 00:34:07;;;;;;;171.33;44.73;;;;;;;;;;4979639;28;20179;-81
2022/11/29 00:36:34;;;;;;;159.57;45.17;;;;;;;;;;4980123;28;20178;-81
2022/11/29 00:39:00;;;;;;;168.30;44.03;;;;;;;;;;4995670;28;20213;-81
2022/11/29 00:41:26;;;;;;;171.07;44.80;;;;;;;;;;4983489;28;20193;-81
2022/11/29 00:43:53;;;;;;;168.37;45.83;;;;;;;;;;4993475;28;20222;-82
2022/11/29 00:46:19;;;;;;;174.70;45.27;;;;;;;;;;4979581;28;20189;-82
2022/11/29 00:48:45;;;;;;;167.73;44.23;;;;;;;;;;4994487;28;20238;-83
2022/11/29 00:51:11;;;;;;;159.23;43.00;;;;;;;;;;4997431;28;20186;-80
2022/11/29 00:53:37;;;;;;;174.77;44.17;;;;;;;;;;4996444;28;20170;-80
2022/11/29 00:56:04;;;;;;;145.40;41.77;;;;;;;;;;5011405;28;20290;-80
2022/11/29 00:58:30;;;;;;;162.33;41.87;;;;;;;;;;5011729;28;20178;-79
2022/11/29 01:00:56;;;;;;;162.03;42.63;;;;;;;;;;5012083;28;20185;-79
2022/11/29 01:03:22;;;;;;;143.40;41.13;;;;;;;;;;4995513;28;20217;-79
2022/11/29 01:05:48;;;;;;;159.17;41.63;;;;;;;;;;4995399;28;20186;-81
2022/11/29 01:08:14;;;;;;;155.30;40.17;;;;;;;;;;4995344;28;20190;-81
2022/11/29 01:10:41;;;;;;;153.90;40.67;;;;;;;;;;4990191;28;20185;-81
2022/11/29 01:13:07;;;;;;;160.43;42.23;;;;;;;;;;4995339;28;20182;-81
2022/11/29 01:15:33;;;;;;;145.73;39.17;;;;;;;;;;4995109;28;20217;-80
2022/11/29 01:17:59;;;;;;;169.73;42.27;;;;;;;;;;4978669;28;20174;-80
2022/11/29 01:20:25;;;;;;;168.33;41.57;;;;;;;;;;4995810;28;20228;-80
2022/11/29 01:22:51;;;;;;;156.83;40.93;;;;;;;;;;4978767;28;20182;-82
2022/11/29 01:25:18;;;;;;;166.73;42.43;;;;;;;;;;4988240;28;20190;-82
2022/11/29 01:27:44;;;;;;;164.20;40.33;;;;;;;;;;4988350;28;20190;-82
2022/11/29 01:30:11;;;;;;;169.27;40.90;;;;;;;;;;4978530;28;20232;-82
2022/11/29 01:32:37;;;;;;;151.50;39.97;;;;;;;;;;4987452;28;20197;-83
2022/11/29 01:35:04;;;;;;;158.73;40.97;;;;;;;;;;4995509;28;20214;-86
2022/11/29 01:37:30;;;;;;;160.03;41.57;;;;;;;;;;4994364;28;20208;-87
2022/11/29 01:39:56;;;;;;;154.73;39.43;;;;;;;;;;4994788;28;20189;-83
2022/11/29 01:42:22;;;;;;;190.30;42.67;;;;;;;;;;4997454;28;20181;-82
2022/11/29 01:45:00;;;;;;;172.17;42.00;;;;;;;;;;5013439;28;20215;-82
2022/11/29 01:47:26;;;;;;;165.17;42.10;;;;;;;;;;4997263;28;20225;-82
2022/11/29 01:49:52;;;;;;;169.40;42.57;;;;;;;;;;4981922;28;20193;-81
2022/11/29 01:52:20;;;;;;;196.37;44.47;;;;;;;;;;4981778;28;20193;-81
2022/11/29 01:54:47;;;;;;;177.60;44.23;;;;;;;;;;4997725;28;20213;-87
2022/11/29 01:57:14;;;;;;;164.33;41.67;;;;;;;;;;4997648;28;20200;-87
2022/11/29 01:59:47;;;;;;;171.40;43.97;;;;;;;;;;4994636;28;20190;-87
2022/11/29 02:02:15;;;;;;;173.90;43.60;;;;;;;;;;4978124;28;20178;-87
2022/11/29 02:04:42;;;;;;;160.80;42.27;;;;;;;;;;4995185;28;20186;-87
2022/11/29 02:07:08;;;;;;;178.80;42.90;;;;;;;;;;4979247;28;20177;-87
2022/11/29 02:09:34;;;;;;;171.20;41.90;;;;;;;;;;4978206;28;20213;-87
2022/11/29 02:12:13;;;;;;;166.43;43.83;;;;;;;;;;4980403;28;20224;-83
2022/11/29 02:14:42;;;;;;;167.80;42.93;;;;;;;;;;4995591;28;20223;-83
2022/11/29 02:17:14;;;;;;;169.90;42.43;;;;;;;;;;4994841;28;20198;-82
2022/11/29 02:19:46;;;;;;;181.20;44.40;;;;;;;;;;5001407;28;20184;-82
2022/11/29 02:22:19;;;;;;;175.03;43.37;;;;;;;;;;4997091;28;20177;-82
2022/11/29 02:24:44;;;;;;;177.00;43.17;;;;;;;;;;4992591;28;20185;-79
2022/11/29 02:27:29;;;;;;;171.17;43.10;;;;;;;;;;4993430;28;20185;-80
2022/11/29 02:30:05;;;;;;;168.00;43.63;;;;;;;;;;4986798;28;20186;-82
2022/11/29 02:32:49;;;;;;;157.40;40.00;;;;;;;;;;4993704;28;20186;-82
2022/11/29 02:35:34;;;;;;;181.07;42.50;;;;;;;;;;4996537;28;20272;-82
2022/11/29 02:38:19;;;;;;;157.13;40.53;;;;;;;;;;4993694;28;20240;-82
2022/11/29 02:40:45;;;;;;;181.30;43.57;;;;;;;;;;4977341;28;20200;-82
2022/11/29 02:43:29;;;;;;;167.70;43.67;;;;;;;;;;4988105;28;20178;-87
2022/11/29 02:45:58;;;;;;;184.83;44.27;;;;;;;;;;4993679;28;20186;-82
2022/11/29 02:48:47;;;;;;;181.60;47.70;;;;;;;;;;5010999;28;20246;-82
2022/11/29 02:51:18;;;;;;;206.57;44.73;;;;;;;;;;4988331;28;20190;-83
2022/11/29 02:53:49;;;;;;;221.70;48.17;;;;;;;;;;5008576;28;20185;-82
2022/11/29 02:56:34;;;;;;;158.20;42.20;;;;;;;;;;5013834;28;20224;-82
2022/11/29 02:59:13;;;;;;;171.80;42.33;;;;;;;;;;4993087;28;20264;-82
2022/11/29 03:01:44;;;;;;;193.43;52.03;;;;;;;;;;4978388;28;20181;-87
2022/11/29 03:04:19;;;;;;;242.13;81.93;;;;;;;;;;4989325;28;20192;-87
2022/11/29 03:06:50;;;;;;;191.80;55.03;;;;;;;;;;4989434;28;20180;-87
2022/11/29 03:09:16;;;;;;;231.33;75.60;;;;;;;;;;4976972;28;20196;-88
2022/11/29 03:11:47;;;;;;;257.60;76.13;;;;;;;;;;5001090;28;20185;-88
2022/11/29 03:14:16;;;;;;;203.03;52.13;;;;;;;;;;4996373;28;20208;-87
2022/11/29 03:16:51;;;;;;;216.30;45.17;;;;;;;;;;5006366;28;20205;-88
2022/11/29 03:19:23;;;;;;;210.97;45.43;;;;;;;;;;5000378;28;20197;-79
2022/11/29 03:22:12;;;;;;;225.70;46.00;;;;;;;;;;4993186;28;20186;-80
2022/11/29 03:24:50;;;;;;;182.43;42.47;;;;;;;;;;5002092;28;20216;-79
2022/11/29 03:27:20;;;;;;;180.70;43.17;;;;;;;;;;4996519;28;20184;-79
2022/11/29 03:29:53;;;;;;;199.83;43.87;;;;;;;;;;5005639;28;20177;-80
2022/11/29 03:32:46;;;;;;;202.67;45.40;;;;;;;;;;4994584;28;20190;-79
2022/11/29 03:35:22;;;;;;;178.83;42.60;;;;;;;;;;4978243;28;20221;-79
2022/11/29 03:37:52;;;;;;;223.50;56.40;;;;;;;;;;5021792;28;20200;-80
2022/11/29 03:40:20;;;;;;;196.03;52.33;;;;;;;;;;5007122;28;20227;-79
2022/11/29 03:42:58;;;;;;;201.53;47.37;;;;;;;;;;5005903;28;20182;-79
2022/11/29 03:45:30;;;;;;;213.93;47.80;;;;;;;;;;5015183;28;20185;-79
2022/11/29 03:48:02;;;;;;;233.73;47.70;;;;;;;;;;5007253;28;20239;-79
2022/11/29 03:50:33;;;;;;;210.80;45.53;;;;;;;;;;5015692;28;20189;-80
2022/11/29 03:53:18;;;;;;;229.73;46.57;;;;;;;;;;5003401;28;20220;-79
2022/11/29 03:56:21;;;;;;;202.50;44.73;;;;;;;;;;4997210;28;20206;-79
2022/11/29 03:58:47;;;;;;;176.90;41.10;;;;;;;;;;5010787;28;20173;-79
2022/11/29 04:01:19;;;;;;;172.60;41.67;;;;;;;;;;4996121;28;20193;-79
2022/11/29 04:04:04;;;;;;;182.63;43.60;;;;;;;;;;4996046;28;20185;-79
2022/11/29 04:06:42;;;;;;;179.43;42.30;;;;;;;;;;5011350;28;20235;-79
2022/11/29 04:09:28;;;;;;;162.17;40.30;;;;;;;;;;4999245;28;20185;-79
2022/11/29 04:11:58;;;;;;;177.00;41.97;;;;;;;;;;4998021;28;20185;-79
2022/11/29 04:14:30;;;;;;;159.30;41.40;;;;;;;;;;5013245;28;20185;-80
2022/11/29 04:17:11;;;;;;;178.97;41.73;;;;;;;;;;4999029;28;20185;-81
2022/11/29 04:19:40;;;;;;;191.80;42.07;;;;;;;;;;5004217;28;20190;-79
2022/11/29 04:22:25;;;;;;;196.83;43.50;;;;;;;;;;4998659;28;20186;-79
2022/11/29 04:25:00;;;;;;;197.93;42.57;;;;;;;;;;5007199;28;20197;-79
2022/11/29 04:27:40;;;;;;;166.33;40.67;;;;;;;;;;4993877;28;20228;-79
2022/11/29 04:30:18;;;;;;;181.23;41.30;;;;;;;;;;5010459;28;20261;-79
2022/11/29 04:32:56;;;;;;;157.30;38.97;;;;;;;;;;5007805;28;20182;-79
2022/11/29 04:35:32;;;;;;;174.30;41.43;;;;;;;;;;5000401;28;20209;-79
2022/11/29 04:38:18;;;;;;;185.30;42.83;;;;;;;;;;4980109;28;20185;-80
2022/11/29 04:41:02;;;;;;;230.77;43.93;;;;;;;;;;4975683;28;20208;-79
2022/11/29 04:43:55;;;;;;;215.33;44.00;;;;;;;;;;4988955;28;20174;-87
2022/11/29 04:46:30;;;;;;;164.47;39.00;;;;;;;;;;4973854;28;20194;-86
2022/11/29 04:49:02;;;;;;;177.70;41.30;;;;;;;;;;4984252;28;20251;-87
2022/11/29 04:51:51;;;;;;;177.27;39.20;;;;;;;;;;5012959;28;20209;-86
2022/11/29 04:54:33;;;;;;;180.07;42.77;;;;;;;;;;4992513;28;20239;-86
2022/11/29 04:57:05;;;;;;;199.27;42.43;;;;;;;;;;4980073;28;20217;-87
2022/11/29 04:59:40;;;;;;;182.90;42.87;;;;;;;;;;4995610;28;20185;-81
2022/11/29 05:02:22;;;;;;;204.00;42.97;;;;;;;;;;4996289;28;20292;-81
2022/11/29 05:04:51;;;;;;;225.67;41.67;;;;;;;;;;4996085;28;20256;-81
2022/11/29 05:07:24;;;;;;;181.93;42.53;;;;;;;;;;5004902;28;20188;-81
2022/11/29 05:09:58;;;;;;;215.40;43.93;;;;;;;;;;5009548;28;20182;-81
2022/11/29 05:12:24;;;;;;;208.13;42.57;;;;;;;;;;5007224;28;20178;-81
2022/11/29 05:14:59;;;;;;;201.33;42.73;;;;;;;;;;4994712;28;20210;-81
2022/11/29 05:17:41;;;;;;;198.50;42.57;;;;;;;;;;4995921;28;20173;-81
2022/11/29 05:20:23;;;;;;;223.53;44.13;;;;;;;;;;4994023;28;20185;-81
2022/11/29 05:23:08;;;;;;;235.00;44.10;;;;;;;;;;5002106;28;20178;-81
2022/11/29 05:25:40;;;;;;;257.13;46.00;;;;;;;;;;4982985;28;20233;-81
2022/11/29 05:28:15;;;;;;;282.47;46.43;;;;;;;;;;4978529;28;20272;-81
2022/11/29 05:30:47;;;;;;;243.43;46.63;;;;;;;;;;5001321;28;20246;-81
2022/11/29 05:33:35;;;;;;;208.97;42.97;;;;;;;;;;5005412;28;20185;-86
2022/11/29 05:36:33;;;;;;;209.87;43.80;;;;;;;;;;5010190;28;20297;-86
2022/11/29 05:39:15;;;;;;;208.80;43.70;;;;;;;;;;4983838;28;20186;-86
2022/11/29 05:41:47;;;;;;;188.50;42.77;;;;;;;;;;5028496;28;20177;-86
2022/11/29 05:44:15;;;;;;;211.50;46.03;;;;;;;;;;5014285;28;20177;-86
2022/11/29 05:46:57;;;;;;;204.47;44.53;;;;;;;;;;5014878;28;20178;-87
2022/11/29 05:49:28;;;;;;;206.63;46.27;;;;;;;;;;4998147;28;20204;-82
2022/11/29 05:52:05;;;;;;;231.80;47.40;;;;;;;;;;4997911;28;20185;-82
2022/11/29 05:54:31;;;;;;;232.03;46.13;;;;;;;;;;5014992;28;20184;-82
2022/11/29 05:57:03;;;;;;;187.70;43.40;;;;;;;;;;4997472;28;20271;-82
2022/11/29 05:59:30;;;;;;;196.93;45.00;;;;;;;;;;4997376;28;20269;-82
2022/11/29 06:02:15;;;;;;;189.13;42.03;;;;;;;;;;4993920;28;20178;-82
2022/11/29 06:04:50;;;;;;;187.87;43.20;;;;;;;;;;4995511;28;20186;-82
2022/11/29 06:07:32;;;;;;;184.43;41.57;;;;;;;;;;4997145;28;20205;-81
2022/11/29 06:09:58;;;;;;;172.47;40.77;;;;;;;;;;4993839;28;20189;-80
2022/11/29 06:12:25;;;;;;;206.20;43.77;;;;;;;;;;4979661;28;20186;-81
2022/11/29 06:15:03;;;;;;;229.87;44.77;;;;;;;;;;4979169;28;20223;-81
2022/11/29 06:17:47;;;;;;;199.43;43.13;;;;;;;;;;5009903;28;20182;-81
2022/11/29 06:20:32;;;;;;;191.73;43.60;;;;;;;;;;5002539;28;20177;-81
2022/11/29 06:23:04;;;;;;;208.43;44.93;;;;;;;;;;4977353;28;20192;-79
2022/11/29 06:25:30;;;;;;;256.63;45.60;;;;;;;;;;5010373;28;20201;-79
2022/11/29 06:28:08;;;;;;;221.47;44.83;;;;;;;;;;4994958;28;20180;-79
2022/11/29 06:30:47;;;;;;;255.77;58.25;;;;;;;;;;4995801;28;20427;-79
2022/11/29 06:33:29;;;;;;;194.43;44.43;;;;;;;;;;5011904;28;20200;-80
2022/11/29 06:36:15;;;;;;;196.30;43.03;;;;;;;;;;5007541;28;20237;-80
2022/11/29 06:38:41;;;;;;;195.60;42.90;;;;;;;;;;5006708;28;20185;-81
2022/11/29 06:41:12;;;;;;;176.40;40.77;;;;;;;;;;5004668;28;20177;-81
2022/11/29 06:43:39;;;;;;;197.83;43.23;;;;;;;;;;5002247;28;20226;-82
2022/11/29 06:46:24;;;;;;;160.57;39.53;;;;;;;;;;4983747;28;20186;-82
2022/11/29 06:49:11;;;;;;;186.27;41.23;;;;;;;;;;5015525;28;20231;-82
2022/11/29 06:52:02;;;;;;;163.90;39.17;;;;;;;;;;4996119;28;20208;-81
2022/11/29 06:54:37;;;;;;;199.17;43.70;;;;;;;;;;5014371;28;20181;-81
2022/11/29 06:57:03;;;;;;;243.03;46.70;;;;;;;;;;5016570;28;20235;-82
2022/11/29 06:59:39;;;;;;;223.73;45.67;;;;;;;;;;5014048;28;20173;-86
2022/11/29 07:02:11;;;;;;;179.83;42.33;;;;;;;;;;5010883;28;20213;-86
2022/11/29 07:04:44;;;;;;;185.48;42.40;;;;;;;;;;4993516;28;20443;-85
2022/11/29 07:07:15;;;;;;;194.03;41.60;;;;;;;;;;4993343;28;20174;-86
2022/11/29 07:09:41;;;;;;;189.03;41.93;;;;;;;;;;4994433;28;20174;-86
2022/11/29 07:12:07;;;;;;;195.23;41.47;;;;;;;;;;4981137;28;20254;-80
2022/11/29 07:14:35;;;;;;;202.40;41.20;;;;;;;;;;4994749;28;20220;-80
2022/11/29 07:17:19;;;;;;;181.20;41.33;;;;;;;;;;5011190;28;20181;-85
2022/11/29 07:19:45;;;;;;;193.60;41.30;;;;;;;;;;5017782;28;20177;-87
2022/11/29 07:22:14;;;;;;;202.80;42.70;;;;;;;;;;5008717;28;20286;-86
2022/11/29 07:24:58;;;;;;;197.70;42.50;;;;;;;;;;4997307;28;20182;-86
2022/11/29 07:27:32;;;;;;;185.73;42.87;;;;;;;;;;4997235;28;20202;-86
2022/11/29 07:30:16;;;;;;;180.97;40.73;;;;;;;;;;5001131;28;20178;-80
2022/11/29 07:32:42;;;;;;;200.30;41.40;;;;;;;;;;5020095;28;20183;-80
2022/11/29 07:35:27;;;;;;;211.23;41.80;;;;;;;;;;5009304;28;20217;-80
2022/11/29 07:37:56;;;;;;;197.63;41.20;;;;;;;;;;4995861;28;20189;-79
2022/11/29 07:40:35;;;;;;;180.70;40.77;;;;;;;;;;5000807;28;20186;-79
2022/11/29 07:43:08;;;;;;;143.90;36.63;;;;;;;;;;4996538;28;20190;-80
2022/11/29 07:45:37;;;;;;;144.27;36.80;;;;;;;;;;5006524;28;20197;-81
2022/11/29 07:48:04;;;;;;;127.03;34.70;;;;;;;;;;4992189;28;20234;-82
2022/11/29 07:50:30;;;;;;;142.63;39.57;;;;;;;;;;4987029;28;20190;-81
2022/11/29 07:52:56;;;;;;;156.33;39.50;;;;;;;;;;4987318;28;20217;-81
2022/11/29 07:55:24;;;;;;;139.87;37.77;;;;;;;;;;4998024;28;20308;-82
2022/11/29 07:57:50;;;;;;;137.70;39.30;;;;;;;;;;4980072;28;20177;-80
2022/11/29 08:00:17;;;;;;;141.47;36.10;;;;;;;;;;4991265;28;20189;-82
2022/11/29 08:02:44;;;;;;;141.80;38.33;;;;;;;;;;5019686;23;20310;-77
2022/11/29 08:05:10;;;;;;;149.50;35.73;;;;;;;;;;5015111;28;20240;-78
2022/11/29 08:07:37;;;;;;;146.87;38.03;;;;;;;;;;5029667;28;20196;-78
2022/11/29 08:10:08;;;;;;;152.93;36.60;;;;;;;;;;4997981;28;20189;-78
2022/11/29 08:12:34;;;;;;;162.70;50.43;;;;;;;;;;5021075;28;20201;-78
2022/11/29 08:15:00;;;;;;;164.07;53.67;;;;;;;;;;4996918;28;20210;-80
2022/11/29 08:17:26;;;;;;;160.17;39.20;;;;;;;;;;5012041;28;20186;-80
2022/11/29 08:19:52;;;;;;;147.90;44.57;;;;;;;;;;4995906;28;20178;-81
2022/11/29 08:22:18;;;;;;;169.20;43.73;;;;;;;;;;5013493;28;20232;-80
2022/11/29 08:24:44;;;;;;;148.93;41.43;;;;;;;;;;5030463;28;20203;-81
2022/11/29 08:27:10;;;;;;;162.83;48.20;;;;;;;;;;5015453;28;20182;-81
2022/11/29 08:29:36;;;;;;;153.73;40.53;;;;;;;;;;4994125;28;20199;-81
2022/11/29 08:32:02;;;;;;;128.70;33.73;;;;;;;;;;4994044;28;20190;-81
2022/11/29 08:34:28;;;;;;;127.73;37.87;;;;;;;;;;4998339;28;20247;-81
2022/11/29 08:36:55;;;;;;;99.60;31.13;;;;;;;;;;5016671;28;20194;-80
2022/11/29 08:39:21;;;;;;;110.27;32.73;;;;;;;;;;5006265;28;20277;-80
2022/11/29 08:41:48;;;;;;;93.97;28.67;;;;;;;;;;5011439;28;20186;-80
2022/11/29 08:44:14;;;;;;;91.90;28.37;;;;;;;;;;5014815;28;20185;-80
2022/11/29 08:49:25;;;;;;;103.57;31.23;;;;;;;;;;4996183;28;20196;-80
2022/11/29 08:53:40;;;;;;;97.97;30.20;;;;;;;;;;5002774;28;20182;-83
2022/11/29 08:54:41;;;;;;;85.83;27.90;;;;;;;;;;5003638;28;20193;-84
2022/11/29 08:57:07;;;;;;;78.57;25.60;;;;;;;;;;5012066;28;20196;-84
2022/11/29 08:59:33;;;;;;;72.23;23.43;;;;;;;;;;4994649;28;20265;-84
2022/11/29 09:01:59;;;;;;;69.57;23.87;;;;;;;;;;4997724;28;20217;-83
2022/11/29 09:04:25;;;;;;;66.23;23.50;;;;;;;;;;4994675;28;20241;-83
2022/11/29 09:06:51;;;;;;;64.83;24.23;;;;;;;;;;5010077;28;20178;-84
2022/11/29 09:09:17;;;;;;;72.17;24.40;;;;;;;;;;5028896;28;20300;-79
2022/11/29 09:11:43;;;;;;;62.87;23.77;;;;;;;;;;4996848;28;20261;-79
2022/11/29 09:14:13;;;;;;;62.83;22.30;;;;;;;;;;4994774;28;20217;-78
2022/11/29 09:16:39;;;;;;;68.50;22.90;;;;;;;;;;4999134;28;20241;-78
2022/11/29 09:19:05;;;;;;;76.23;23.80;;;;;;;;;;5010813;28;20182;-79
2022/11/29 09:21:33;;;;;;;70.67;23.60;;;;;;;;;;4999677;28;20239;-78
2022/11/29 09:24:00;;;;;;;63.47;22.57;;;;;;;;;;5005401;28;20206;-79
2022/11/29 09:26:28;;;;;;;56.33;22.10;;;;;;;;;;5001381;28;20240;-84
2022/11/29 09:28:54;;;;;;;56.30;21.73;;;;;;;;;;5027035;28;20236;-84
2022/11/29 09:31:20;;;;;;;55.73;21.70;;;;;;;;;;5027726;28;20197;-83
2022/11/29 09:33:47;;;;;;;56.77;21.77;;;;;;;;;;5011734;28;20193;-85
2022/11/29 09:36:14;;;;;;;63.80;22.83;;;;;;;;;;5003086;28;20268;-84
2022/11/29 09:38:40;;;;;;;70.93;23.67;;;;;;;;;;4994988;28;20193;-84
2022/11/29 09:41:21;;;;;;;62.60;22.43;;;;;;;;;;5009820;28;20180;-84
2022/11/29 09:44:04;;;;;;;58.37;23.03;;;;;;;;;;4996908;28;20189;-79
2022/11/29 09:46:42;;;;;;;60.93;22.70;;;;;;;;;;5008806;28;20182;-79
2022/11/29 09:49:11;;;;;;;60.70;23.77;;;;;;;;;;5005364;28;20204;-79
2022/11/29 09:51:53;;;;;;;58.37;23.27;;;;;;;;;;5029999;28;20205;-79
2022/11/29 09:54:29;;;;;;;57.13;23.87;;;;;;;;;;5029420;28;20216;-79
2022/11/29 09:56:55;;;;;;;61.23;23.63;;;;;;;;;;5003653;28;20209;-78
2022/11/29 09:59:26;;;;;;;64.47;23.83;;;;;;;;;;4997938;28;20190;-82
2022/11/29 10:02:11;;;;;;;58.77;24.23;;;;;;;;;;4998971;28;20229;-81
2022/11/29 10:04:40;;;;;;;60.77;22.87;;;;;;;;;;4995411;28;20181;-81
2022/11/29 10:07:14;;;;;;;57.20;21.97;;;;;;;;;;5023541;28;20181;-81
2022/11/29 10:09:45;;;;;;;54.83;22.20;;;;;;;;;;5029249;28;20181;-81
2022/11/29 10:12:17;;;;;;;56.67;22.93;;;;;;;;;;5004029;28;20181;-81
2022/11/29 10:14:43;;;;;;;60.70;22.57;;;;;;;;;;5002299;28;20185;-85
2022/11/29 10:17:24;;;;;;;61.53;24.50;;;;;;;;;;5009560;28;20188;-85
2022/11/29 10:20:10;;;;;;;54.33;21.30;;;;;;;;;;4996937;28;20177;-84
2022/11/29 10:22:36;;;;;;;52.93;22.77;;;;;;;;;;5001667;28;20292;-84
2022/11/29 10:25:02;;;;;;;59.67;23.93;;;;;;;;;;4997266;28;20181;-84
2022/11/29 10:27:29;;;;;;;50.87;21.07;;;;;;;;;;4999522;28;20205;-84
2022/11/29 10:29:56;;;;;;;46.33;19.90;;;;;;;;;;4977512;28;20259;-84
2022/11/29 10:32:24;;;;;;;54.13;21.23;;;;;;;;;;4985069;28;20189;-79
2022/11/29 10:34:50;;;;;;;55.43;22.73;;;;;;;;;;4998007;28;20183;-79
2022/11/29 10:37:21;;;;;;;137.30;67.77;;;;;;;;;;5001836;28;20209;-79
2022/11/29 10:40:03;;;;;;;69.80;33.60;;;;;;;;;;4994301;28;20182;-79
2022/11/29 10:45:33;;;;;;;44.47;21.23;;;;;;;;;;5023428;28;20222;-81
2022/11/29 10:48:18;;;;;;;48.20;20.67;;;;;;;;;;5013490;28;20192;-83
2022/11/29 10:50:47;;;;;;;42.17;19.47;;;;;;;;;;5021372;28;20192;-85
2022/11/29 10:53:22;;;;;;;40.77;19.37;;;;;;;;;;5004358;28;20184;-85
2022/11/29 10:56:08;;;;;;;43.77;19.30;;;;;;;;;;5014323;28;20204;-85
2022/11/29 10:58:35;;;;;;;42.10;18.97;;;;;;;;;;5031116;28;20181;-84
2022/11/29 11:01:07;;;;;;;38.37;18.67;;;;;;;;;;4986042;28;20220;-85
2022/11/29 11:03:39;;;;;;;42.00;18.43;;;;;;;;;;4997974;28;20276;-85
2022/11/29 11:06:07;;;;;;;37.80;18.40;;;;;;;;;;5015425;28;20181;-80
2022/11/29 11:08:34;;;;;;;36.37;17.97;;;;;;;;;;4998825;28;20182;-80
2022/11/29 11:11:01;;;;;;;39.30;19.13;;;;;;;;;;5001110;28;20196;-80
2022/11/29 11:13:29;;;;;;;40.40;18.77;;;;;;;;;;5006416;28;20207;-79
2022/11/29 11:15:56;;;;;;;39.40;18.53;;;;;;;;;;5008547;28;20209;-79
2022/11/29 11:18:25;;;;;;;38.63;19.30;;;;;;;;;;5010298;28;20189;-79
2022/11/29 11:20:53;;;;;;;43.00;19.27;;;;;;;;;;5003938;28;20186;-78
2022/11/29 11:23:28;;;;;;;40.10;20.13;;;;;;;;;;5000635;28;20291;-77
2022/11/29 11:26:00;;;;;;;45.67;21.50;;;;;;;;;;5003558;28;20185;-78
2022/11/29 11:28:27;;;;;;;43.23;20.33;;;;;;;;;;5030903;28;20194;-77
2022/11/29 11:30:58;;;;;;;46.00;20.23;;;;;;;;;;5002417;28;20200;-77
2022/11/29 11:33:26;;;;;;;41.57;19.77;;;;;;;;;;5003202;28;20217;-78
2022/11/29 11:36:02;;;;;;;40.13;19.33;;;;;;;;;;4996336;28;20210;-78
2022/11/29 11:38:28;;;;;;;42.80;19.53;;;;;;;;;;5004044;28;20193;-77
2022/11/29 11:41:13;;;;;;;42.43;19.80;;;;;;;;;;4995208;28;20229;-80
2022/11/29 11:43:39;;;;;;;35.83;19.73;;;;;;;;;;5008738;28;20181;-79
2022/11/29 11:46:05;;;;;;;44.30;21.93;;;;;;;;;;4995103;28;20189;-79
2022/11/29 11:48:32;;;;;;;44.03;20.90;;;;;;;;;;5008625;28;20196;-79
2022/11/29 11:50:59;;;;;;;41.27;19.47;;;;;;;;;;5016820;28;20184;-80
2022/11/29 11:53:32;;;;;;;37.47;19.60;;;;;;;;;;5009950;28;20268;-80
2022/11/29 11:55:59;;;;;;;43.80;20.47;;;;;;;;;;5011753;28;20237;-80
2022/11/29 11:58:36;;;;;;;38.57;19.60;;;;;;;;;;5006065;28;20190;-80
2022/11/29 12:01:11;;;;;;;37.33;19.73;;;;;;;;;;5001453;28;20238;-80
2022/11/29 12:04:03;;;;;;;38.53;19.47;;;;;;;;;;5013772;28;20227;-80
2022/11/29 12:06:35;;;;;;;40.07;19.33;;;;;;;;;;5001230;28;20198;-80
2022/11/29 12:09:10;;;;;;;35.57;18.60;;;;;;;;;;5010984;28;20194;-80
2022/11/29 12:11:42;;;;;;;35.67;19.07;;;;;;;;;;5003303;28;20207;-80
2022/11/29 12:14:12;;;;;;;34.90;19.57;;;;;;;;;;5014498;28;20196;-79
2022/11/29 12:16:39;;;;;;;40.13;19.30;;;;;;;;;;5009740;28;20205;-79
2022/11/29 12:19:14;;;;;;;37.50;19.77;;;;;;;;;;4998906;28;20205;-79
2022/11/29 12:21:42;;;;;;;40.00;19.20;;;;;;;;;;4995907;28;20224;-79
2022/11/29 12:24:08;;;;;;;41.93;20.57;;;;;;;;;;5012627;28;20245;-79
2022/11/29 12:26:38;;;;;;;36.00;20.10;;;;;;;;;;5019342;28;20193;-80
2022/11/29 12:29:15;;;;;;;45.27;21.27;;;;;;;;;;5005418;28;20190;-81
2022/11/29 12:31:53;;;;;;;39.10;20.77;;;;;;;;;;5010037;28;20197;-81
2022/11/29 12:34:19;;;;;;;44.07;21.17;;;;;;;;;;5012026;28;20185;-81
2022/11/29 12:36:48;;;;;;;43.43;20.47;;;;;;;;;;5004093;28;20232;-82
2022/11/29 12:39:17;;;;;;;44.33;21.37;;;;;;;;;;5015291;28;20186;-81
2022/11/29 12:41:55;;;;;;;43.13;21.40;;;;;;;;;;5008817;28;20182;-82
2022/11/29 12:44:29;;;;;;;46.73;22.40;;;;;;;;;;5013937;28;20181;-81
2022/11/29 12:47:21;;;;;;;45.17;21.20;;;;;;;;;;5006799;28;20238;-79
2022/11/29 12:50:03;;;;;;;42.47;20.90;;;;;;;;;;4986377;28;20201;-79
2022/11/29 12:52:45;;;;;;;39.03;20.67;;;;;;;;;;5003210;28;20205;-79
2022/11/29 12:55:17;;;;;;;46.30;21.40;;;;;;;;;;4996339;28;20273;-79
2022/11/29 12:57:52;;;;;;;43.63;21.67;;;;;;;;;;5010580;28;20181;-79
2022/11/29 13:00:19;;;;;;;45.73;23.87;;;;;;;;;;4996468;28;20193;-79
2022/11/29 13:03:03;;;;;;;48.27;21.27;;;;;;;;;;5006773;28;20243;-82
2022/11/29 13:05:52;;;;;;;45.30;24.00;;;;;;;;;;4995090;28;20178;-81
2022/11/29 13:08:37;;;;;;;45.63;25.10;;;;;;;;;;4986095;28;20197;-81
2022/11/29 13:11:09;;;;;;;44.33;22.37;;;;;;;;;;5001020;28;20186;-81
2022/11/29 13:13:40;;;;;;;35.97;19.73;;;;;;;;;;5010144;28;20189;-82
2022/11/29 13:16:11;;;;;;;38.97;20.17;;;;;;;;;;5015321;28;20215;-82
2022/11/29 13:18:46;;;;;;;39.30;19.70;;;;;;;;;;5015630;28;20184;-85
2022/11/29 13:21:14;;;;;;;40.07;18.97;;;;;;;;;;4996211;28;20188;-85
2022/11/29 13:23:52;;;;;;;41.17;18.80;;;;;;;;;;4996049;28;20213;-85
2022/11/29 13:26:18;;;;;;;37.23;18.43;;;;;;;;;;5003717;28;20193;-85
2022/11/29 13:28:45;;;;;;;38.27;18.43;;;;;;;;;;5012712;28;20193;-85
2022/11/29 13:31:14;;;;;;;39.30;18.53;;;;;;;;;;5011586;28;20220;-84
2022/11/29 13:33:43;;;;;;;39.43;17.60;;;;;;;;;;5013818;28;20181;-84
2022/11/29 13:36:09;;;;;;;39.57;17.57;;;;;;;;;;5006045;28;20217;-80
2022/11/29 13:38:39;;;;;;;36.27;17.73;;;;;;;;;;5030173;28;20184;-80
2022/11/29 13:41:05;;;;;;;41.73;19.17;;;;;;;;;;5014036;28;20189;-80
2022/11/29 13:43:38;;;;;;;38.07;18.63;;;;;;;;;;5014360;28;20181;-80
2022/11/29 13:46:21;;;;;;;40.50;19.00;;;;;;;;;;5014344;28;20277;-80
2022/11/29 13:48:49;;;;;;;38.83;18.70;;;;;;;;;;5015151;28;20177;-80
2022/11/29 13:51:29;;;;;;;39.50;20.23;;;;;;;;;;5014375;28;20288;-80
2022/11/29 13:53:56;;;;;;;41.73;19.80;;;;;;;;;;5004391;28;20283;-79
2022/11/29 13:56:34;;;;;;;48.43;21.40;;;;;;;;;;4998333;28;20208;-79
2022/11/29 13:59:04;;;;;;;37.77;20.30;;;;;;;;;;5001875;28;20177;-79
2022/11/29 14:01:42;;;;;;;37.00;19.50;;;;;;;;;;5015602;28;20224;-80
2022/11/29 14:04:37;;;;;;;42.53;20.97;;;;;;;;;;5015170;28;20179;-79
2022/11/29 14:07:05;;;;;;;39.37;18.90;;;;;;;;;;4995386;28;20204;-79
2022/11/29 14:09:43;;;;;;;40.57;20.10;;;;;;;;;;5009330;28;20176;-80
2022/11/29 14:12:18;;;;;;;38.70;20.57;;;;;;;;;;5031876;28;20195;-80
2022/11/29 14:14:53;;;;;;;37.33;20.67;;;;;;;;;;5016674;28;20194;-80
2022/11/29 14:17:32;;;;;;;36.67;20.27;;;;;;;;;;5012353;28;20187;-79
2022/11/29 14:20:37;;;;;;;42.00;22.03;;;;;;;;;;5017097;28;20267;-79
2022/11/29 14:23:03;;;;;;;41.83;19.50;;;;;;;;;;4993070;28;20205;-80
2022/11/29 14:25:30;;;;;;;34.60;18.03;;;;;;;;;;4973380;28;20183;-80
2022/11/29 14:27:57;;;;;;;42.70;20.40;;;;;;;;;;4990995;28;20222;-80
2022/11/29 14:30:41;;;;;;;37.27;19.73;;;;;;;;;;5032902;28;20253;-80
2022/11/29 14:33:23;;;;;;;38.67;19.37;;;;;;;;;;5008587;28;20191;-80
2022/11/29 14:35:56;;;;;;;39.20;19.77;;;;;;;;;;4996728;28;20208;-80
2022/11/29 14:38:38;;;;;;;40.47;20.97;;;;;;;;;;5029470;28;20180;-80
2022/11/29 14:41:22;;;;;;;46.40;20.57;;;;;;;;;;5033877;28;20191;-80
2022/11/29 14:43:49;;;;;;;40.30;20.73;;;;;;;;;;5016010;28;20183;-82
2022/11/29 14:46:14;;;;;;;44.90;21.60;;;;;;;;;;5016332;28;20189;-81